Heathsville, Illinois
Current Conditions -  °F | °C
As of 2:55 AM on Monday 20 Oct 2014 (Local Time) from KRSV Reporting Station
Broken Clouds Broken Clouds  
Wind Chill: 11°   Ceiling: 11000
Heat Index: 11°   Visibility: 10mi
Dew Point:   Wind: 6mph
Humidity: 86%   Direction: 190°S
Pressure: 30.02"   Gusts: NA
Location:  38.904°N, 87.665°W
Report Text: KRSV 200755Z AUTO 19005KT 10SM BKN110 11/08 A3002 RMK AO2 T01050083
Loading
Personal Weather Stations






























Interactive Weather Map
Tropical Storm Tracking
New forecast layout! Learn more

10-Day Weather Forecast

Advertisements
Track Severe Weather on mobile